sensor_id;sensor_type;location;lat;lon;timestamp;P1;P2;P0
55518;PMS5003;41724;51.176;-0.708;2024-02-16T00:02:20;11;10;
55518;PMS5003;41724;51.176;-0.708;2024-02-16T00:04:47;8;8;
55518;PMS5003;41724;51.176;-0.708;2024-02-16T00:07:14;10;10;
55518;PMS5003;41724;51.176;-0.708;2024-02-16T00:09:41;9;9;
55518;PMS5003;41724;51.176;-0.708;2024-02-16T00:12:08;10;8;
55518;PMS5003;41724;51.176;-0.708;2024-02-16T00:14:35;9;9;
55518;PMS5003;41724;51.176;-0.708;2024-02-16T00:17:02;11;10;
55518;PMS5003;41724;51.176;-0.708;2024-02-16T00:19:30;12;11;
55518;PMS5003;41724;51.176;-0.708;2024-02-16T00:21:57;11;10;
55518;PMS5003;41724;51.176;-0.708;2024-02-16T00:24:24;11;11;
55518;PMS5003;41724;51.176;-0.708;2024-02-16T00:26:51;10;10;
55518;PMS5003;41724;51.176;-0.708;2024-02-16T00:29:17;12;11;
55518;PMS5003;41724;51.176;-0.708;2024-02-16T00:31:45;11;11;
55518;PMS5003;41724;51.176;-0.708;2024-02-16T00:34:11;11;11;
55518;PMS5003;41724;51.176;-0.708;2024-02-16T00:36:39;12;12;
55518;PMS5003;41724;51.176;-0.708;2024-02-16T00:39:06;10;10;
55518;PMS5003;41724;51.176;-0.708;2024-02-16T00:41:33;12;12;
55518;PMS5003;41724;51.176;-0.708;2024-02-16T00:44:00;13;13;
55518;PMS5003;41724;51.176;-0.708;2024-02-16T00:46:26;16;15;
55518;PMS5003;41724;51.176;-0.708;2024-02-16T00:48:53;13;13;
55518;PMS5003;41724;51.176;-0.708;2024-02-16T00:51:20;14;14;
55518;PMS5003;41724;51.176;-0.708;2024-02-16T00:53:47;14;13;
55518;PMS5003;41724;51.176;-0.708;2024-02-16T00:56:14;11;11;
55518;PMS5003;41724;51.176;-0.708;2024-02-16T00:58:41;13;12;
55518;PMS5003;41724;51.176;-0.708;2024-02-16T01:01:09;11;11;
55518;PMS5003;41724;51.176;-0.708;2024-02-16T01:03:37;14;14;
55518;PMS5003;41724;51.176;-0.708;2024-02-16T01:06:04;16;14;
55518;PMS5003;41724;51.176;-0.708;2024-02-16T01:08:32;15;15;
55518;PMS5003;41724;51.176;-0.708;2024-02-16T01:10:59;13;11;
55518;PMS5003;41724;51.176;-0.708;2024-02-16T01:13:26;13;12;
55518;PMS5003;41724;51.176;-0.708;2024-02-16T01:15:53;9;9;
55518;PMS5003;41724;51.176;-0.708;2024-02-16T01:18:20;13;12;
55518;PMS5003;41724;51.176;-0.708;2024-02-16T01:20:48;20;18;
55518;PMS5003;41724;51.176;-0.708;2024-02-16T01:23:15;12;11;
55518;PMS5003;41724;51.176;-0.708;2024-02-16T01:25:42;11;11;
55518;PMS5003;41724;51.176;-0.708;2024-02-16T01:28:09;13;13;
55518;PMS5003;41724;51.176;-0.708;2024-02-16T01:30:36;10;10;
55518;PMS5003;41724;51.176;-0.708;2024-02-16T01:33:03;18;15;
55518;PMS5003;41724;51.176;-0.708;2024-02-16T01:35:31;15;13;
55518;PMS5003;41724;51.176;-0.708;2024-02-16T01:37:58;12;12;
55518;PMS5003;41724;51.176;-0.708;2024-02-16T01:40:25;13;13;
55518;PMS5003;41724;51.176;-0.708;2024-02-16T01:42:52;10;10;
55518;PMS5003;41724;51.176;-0.708;2024-02-16T01:45:19;9;9;
55518;PMS5003;41724;51.176;-0.708;2024-02-16T01:47:48;14;14;
55518;PMS5003;41724;51.176;-0.708;2024-02-16T01:50:17;12;12;
55518;PMS5003;41724;51.176;-0.708;2024-02-16T01:52:46;14;13;
55518;PMS5003;41724;51.176;-0.708;2024-02-16T01:55:14;12;11;
55518;PMS5003;41724;51.176;-0.708;2024-02-16T01:57:42;11;11;
55518;PMS5003;41724;51.176;-0.708;2024-02-16T02:00:11;10;10;
55518;PMS5003;41724;51.176;-0.708;2024-02-16T02:02:39;9;7;
55518;PMS5003;41724;51.176;-0.708;2024-02-16T02:05:06;8;8;
55518;PMS5003;41724;51.176;-0.708;2024-02-16T02:07:33;7;7;
55518;PMS5003;41724;51.176;-0.708;2024-02-16T02:10:00;5;5;
55518;PMS5003;41724;51.176;-0.708;2024-02-16T02:12:27;6;6;
55518;PMS5003;41724;51.176;-0.708;2024-02-16T02:14:54;5;5;
55518;PMS5003;41724;51.176;-0.708;2024-02-16T02:17:21;4;4;
55518;PMS5003;41724;51.176;-0.708;2024-02-16T02:19:48;5;5;
55518;PMS5003;41724;51.176;-0.708;2024-02-16T02:22:16;4;3;
55518;PMS5003;41724;51.176;-0.708;2024-02-16T02:24:43;4;4;
55518;PMS5003;41724;51.176;-0.708;2024-02-16T02:27:11;4;4;
55518;PMS5003;41724;51.176;-0.708;2024-02-16T02:29:39;3;3;
55518;PMS5003;41724;51.176;-0.708;2024-02-16T02:32:07;3;3;
55518;PMS5003;41724;51.176;-0.708;2024-02-16T02:34:35;4;4;
55518;PMS5003;41724;51.176;-0.708;2024-02-16T02:37:02;2;2;
55518;PMS5003;41724;51.176;-0.708;2024-02-16T02:39:29;1;1;
55518;PMS5003;41724;51.176;-0.708;2024-02-16T02:41:58;1;1;
55518;PMS5003;41724;51.176;-0.708;2024-02-16T02:44:25;0;0;
55518;PMS5003;41724;51.176;-0.708;2024-02-16T02:46:52;2;1;
55518;PMS5003;41724;51.176;-0.708;2024-02-16T02:49:19;1;1;
55518;PMS5003;41724;51.176;-0.708;2024-02-16T02:51:46;2;2;
55518;PMS5003;41724;51.176;-0.708;2024-02-16T02:54:13;2;2;
55518;PMS5003;41724;51.176;-0.708;2024-02-16T02:56:40;1;1;
55518;PMS5003;41724;51.176;-0.708;2024-02-16T02:59:07;0;0;
55518;PMS5003;41724;51.176;-0.708;2024-02-16T03:01:34;1;1;
55518;PMS5003;41724;51.176;-0.708;2024-02-16T03:04:01;0;0;
55518;PMS5003;41724;51.176;-0.708;2024-02-16T03:06:28;3;2;
55518;PMS5003;41724;51.176;-0.708;2024-02-16T03:08:55;1;1;
55518;PMS5003;41724;51.176;-0.708;2024-02-16T03:11:22;0;0;
55518;PMS5003;41724;51.176;-0.708;2024-02-16T03:13:49;1;1;
55518;PMS5003;41724;51.176;-0.708;2024-02-16T03:16:16;0;0;
55518;PMS5003;41724;51.176;-0.708;2024-02-16T03:18:43;1;1;
55518;PMS5003;41724;51.176;-0.708;2024-02-16T03:21:12;0;0;
55518;PMS5003;41724;51.176;-0.708;2024-02-16T03:23:40;1;1;
55518;PMS5003;41724;51.176;-0.708;2024-02-16T03:26:13;1;1;
55518;PMS5003;41724;51.176;-0.708;2024-02-16T03:28:40;1;1;
55518;PMS5003;41724;51.176;-0.708;2024-02-16T03:31:14;0;0;
55518;PMS5003;41724;51.176;-0.708;2024-02-16T03:33:43;1;0;
55518;PMS5003;41724;51.176;-0.708;2024-02-16T03:36:10;0;0;
55518;PMS5003;41724;51.176;-0.708;2024-02-16T03:38:37;1;1;
55518;PMS5003;41724;51.176;-0.708;2024-02-16T03:41:04;2;1;
55518;PMS5003;41724;51.176;-0.708;2024-02-16T03:43:31;1;1;
55518;PMS5003;41724;51.176;-0.708;2024-02-16T03:45:58;1;1;
55518;PMS5003;41724;51.176;-0.708;2024-02-16T03:48:25;2;2;
55518;PMS5003;41724;51.176;-0.708;2024-02-16T03:50:52;1;1;
55518;PMS5003;41724;51.176;-0.708;2024-02-16T03:53:19;1;1;
55518;PMS5003;41724;51.176;-0.708;2024-02-16T03:55:46;1;1;
55518;PMS5003;41724;51.176;-0.708;2024-02-16T03:58:13;2;2;
55518;PMS5003;41724;51.176;-0.708;2024-02-16T04:00:40;2;2;
55518;PMS5003;41724;51.176;-0.708;2024-02-16T04:03:07;0;0;
55518;PMS5003;41724;51.176;-0.708;2024-02-16T04:05:34;1;1;
55518;PMS5003;41724;51.176;-0.708;2024-02-16T04:08:01;1;1;
55518;PMS5003;41724;51.176;-0.708;2024-02-16T04:10:28;1;1;
55518;PMS5003;41724;51.176;-0.708;2024-02-16T04:12:55;2;1;
55518;PMS5003;41724;51.176;-0.708;2024-02-16T04:15:22;2;2;
55518;PMS5003;41724;51.176;-0.708;2024-02-16T04:17:49;1;1;
55518;PMS5003;41724;51.176;-0.708;2024-02-16T04:20:16;1;1;
55518;PMS5003;41724;51.176;-0.708;2024-02-16T04:22:43;1;1;
55518;PMS5003;41724;51.176;-0.708;2024-02-16T04:25:10;1;1;
55518;PMS5003;41724;51.176;-0.708;2024-02-16T04:27:38;2;1;
55518;PMS5003;41724;51.176;-0.708;2024-02-16T04:30:05;2;1;
55518;PMS5003;41724;51.176;-0.708;2024-02-16T04:32:32;1;1;
55518;PMS5003;41724;51.176;-0.708;2024-02-16T04:35:00;1;1;
55518;PMS5003;41724;51.176;-0.708;2024-02-16T04:37:27;1;1;
55518;PMS5003;41724;51.176;-0.708;2024-02-16T04:39:53;2;2;
55518;PMS5003;41724;51.176;-0.708;2024-02-16T04:42:21;2;2;
55518;PMS5003;41724;51.176;-0.708;2024-02-16T04:44:48;1;1;
55518;PMS5003;41724;51.176;-0.708;2024-02-16T04:47:15;0;0;
55518;PMS5003;41724;51.176;-0.708;2024-02-16T04:49:42;1;1;
55518;PMS5003;41724;51.176;-0.708;2024-02-16T04:52:09;2;1;
55518;PMS5003;41724;51.176;-0.708;2024-02-16T04:54:36;0;0;
55518;PMS5003;41724;51.176;-0.708;2024-02-16T04:57:04;2;1;
55518;PMS5003;41724;51.176;-0.708;2024-02-16T04:59:30;2;0;
55518;PMS5003;41724;51.176;-0.708;2024-02-16T05:01:57;1;1;
55518;PMS5003;41724;51.176;-0.708;2024-02-16T05:04:24;0;0;
55518;PMS5003;41724;51.176;-0.708;2024-02-16T05:06:51;1;1;
55518;PMS5003;41724;51.176;-0.708;2024-02-16T05:09:18;0;0;
55518;PMS5003;41724;51.176;-0.708;2024-02-16T05:11:45;0;0;
55518;PMS5003;41724;51.176;-0.708;2024-02-16T05:14:12;1;1;
55518;PMS5003;41724;51.176;-0.708;2024-02-16T05:16:42;1;1;
55518;PMS5003;41724;51.176;-0.708;2024-02-16T05:19:10;0;0;
55518;PMS5003;41724;51.176;-0.708;2024-02-16T05:21:37;0;0;
55518;PMS5003;41724;51.176;-0.708;2024-02-16T05:24:04;0;0;
55518;PMS5003;41724;51.176;-0.708;2024-02-16T05:26:32;1;1;
55518;PMS5003;41724;51.176;-0.708;2024-02-16T05:28:59;0;0;
55518;PMS5003;41724;51.176;-0.708;2024-02-16T05:31:26;0;0;
55518;PMS5003;41724;51.176;-0.708;2024-02-16T05:33:53;1;1;
55518;PMS5003;41724;51.176;-0.708;2024-02-16T05:36:21;0;0;
55518;PMS5003;41724;51.176;-0.708;2024-02-16T05:38:48;1;1;
55518;PMS5003;41724;51.176;-0.708;2024-02-16T05:41:15;1;1;
55518;PMS5003;41724;51.176;-0.708;2024-02-16T05:43:42;0;0;
55518;PMS5003;41724;51.176;-0.708;2024-02-16T05:46:12;1;1;
55518;PMS5003;41724;51.176;-0.708;2024-02-16T05:48:39;1;1;
55518;PMS5003;41724;51.176;-0.708;2024-02-16T05:51:06;1;1;
55518;PMS5003;41724;51.176;-0.708;2024-02-16T05:53:33;2;2;
55518;PMS5003;41724;51.176;-0.708;2024-02-16T05:56:01;1;1;
55518;PMS5003;41724;51.176;-0.708;2024-02-16T05:58:28;0;0;
55518;PMS5003;41724;51.176;-0.708;2024-02-16T06:00:55;3;2;
55518;PMS5003;41724;51.176;-0.708;2024-02-16T06:03:22;2;2;
55518;PMS5003;41724;51.176;-0.708;2024-02-16T06:05:49;1;1;
55518;PMS5003;41724;51.176;-0.708;2024-02-16T06:08:16;2;2;
55518;PMS5003;41724;51.176;-0.708;2024-02-16T06:10:44;2;2;
55518;PMS5003;41724;51.176;-0.708;2024-02-16T06:13:11;1;1;
55518;PMS5003;41724;51.176;-0.708;2024-02-16T06:15:38;1;1;
55518;PMS5003;41724;51.176;-0.708;2024-02-16T06:18:05;2;2;
55518;PMS5003;41724;51.176;-0.708;2024-02-16T06:20:32;2;1;
55518;PMS5003;41724;51.176;-0.708;2024-02-16T06:22:59;2;2;
55518;PMS5003;41724;51.176;-0.708;2024-02-16T06:25:26;2;2;
55518;PMS5003;41724;51.176;-0.708;2024-02-16T06:27:53;4;4;
55518;PMS5003;41724;51.176;-0.708;2024-02-16T06:30:20;3;3;
55518;PMS5003;41724;51.176;-0.708;2024-02-16T06:32:48;6;5;
55518;PMS5003;41724;51.176;-0.708;2024-02-16T06:35:14;9;8;
55518;PMS5003;41724;51.176;-0.708;2024-02-16T06:37:41;4;4;
55518;PMS5003;41724;51.176;-0.708;2024-02-16T06:40:09;7;6;
55518;PMS5003;41724;51.176;-0.708;2024-02-16T06:42:37;7;6;
55518;PMS5003;41724;51.176;-0.708;2024-02-16T06:45:04;8;8;
55518;PMS5003;41724;51.176;-0.708;2024-02-16T06:47:32;9;8;
55518;PMS5003;41724;51.176;-0.708;2024-02-16T06:50:00;6;5;
55518;PMS5003;41724;51.176;-0.708;2024-02-16T06:52:27;11;9;
55518;PMS5003;41724;51.176;-0.708;2024-02-16T06:54:54;16;12;
55518;PMS5003;41724;51.176;-0.708;2024-02-16T06:57:21;11;8;
55518;PMS5003;41724;51.176;-0.708;2024-02-16T06:59:48;10;8;
55518;PMS5003;41724;51.176;-0.708;2024-02-16T07:02:15;6;6;
55518;PMS5003;41724;51.176;-0.708;2024-02-16T07:04:42;6;6;
55518;PMS5003;41724;51.176;-0.708;2024-02-16T07:07:09;5;3;
55518;PMS5003;41724;51.176;-0.708;2024-02-16T07:09:36;6;5;
55518;PMS5003;41724;51.176;-0.708;2024-02-16T07:12:03;7;5;
55518;PMS5003;41724;51.176;-0.708;2024-02-16T07:14:31;5;5;
55518;PMS5003;41724;51.176;-0.708;2024-02-16T07:16:58;8;6;
55518;PMS5003;41724;51.176;-0.708;2024-02-16T07:19:25;6;5;
55518;PMS5003;41724;51.176;-0.708;2024-02-16T07:21:52;4;4;
55518;PMS5003;41724;51.176;-0.708;2024-02-16T07:24:19;5;4;
55518;PMS5003;41724;51.176;-0.708;2024-02-16T07:26:47;4;4;
55518;PMS5003;41724;51.176;-0.708;2024-02-16T07:29:14;4;4;
55518;PMS5003;41724;51.176;-0.708;2024-02-16T07:31:41;4;4;
55518;PMS5003;41724;51.176;-0.708;2024-02-16T07:34:08;5;4;
55518;PMS5003;41724;51.176;-0.708;2024-02-16T07:36:34;5;5;
55518;PMS5003;41724;51.176;-0.708;2024-02-16T07:39:01;6;5;
55518;PMS5003;41724;51.176;-0.708;2024-02-16T07:41:29;4;4;
55518;PMS5003;41724;51.176;-0.708;2024-02-16T07:43:56;6;4;
55518;PMS5003;41724;51.176;-0.708;2024-02-16T07:46:23;5;5;
55518;PMS5003;41724;51.176;-0.708;2024-02-16T07:48:50;7;6;
55518;PMS5003;41724;51.176;-0.708;2024-02-16T07:51:17;5;4;
55518;PMS5003;41724;51.176;-0.708;2024-02-16T07:53:44;10;9;
55518;PMS5003;41724;51.176;-0.708;2024-02-16T07:56:11;6;5;
55518;PMS5003;41724;51.176;-0.708;2024-02-16T07:58:40;10;10;
55518;PMS5003;41724;51.176;-0.708;2024-02-16T08:01:07;7;7;
55518;PMS5003;41724;51.176;-0.708;2024-02-16T08:03:34;8;7;
55518;PMS5003;41724;51.176;-0.708;2024-02-16T08:06:01;8;7;
55518;PMS5003;41724;51.176;-0.708;2024-02-16T08:08:28;5;5;
55518;PMS5003;41724;51.176;-0.708;2024-02-16T08:10:55;7;6;
55518;PMS5003;41724;51.176;-0.708;2024-02-16T08:13:22;6;6;
55518;PMS5003;41724;51.176;-0.708;2024-02-16T08:15:50;6;6;
55518;PMS5003;41724;51.176;-0.708;2024-02-16T08:18:17;8;8;
55518;PMS5003;41724;51.176;-0.708;2024-02-16T08:20:44;7;6;
55518;PMS5003;41724;51.176;-0.708;2024-02-16T08:23:12;8;8;
55518;PMS5003;41724;51.176;-0.708;2024-02-16T08:25:39;7;6;
55518;PMS5003;41724;51.176;-0.708;2024-02-16T08:28:06;6;6;
55518;PMS5003;41724;51.176;-0.708;2024-02-16T08:30:33;7;6;
55518;PMS5003;41724;51.176;-0.708;2024-02-16T08:33:00;7;7;
55518;PMS5003;41724;51.176;-0.708;2024-02-16T08:35:27;7;7;
55518;PMS5003;41724;51.176;-0.708;2024-02-16T08:37:54;7;6;
55518;PMS5003;41724;51.176;-0.708;2024-02-16T08:40:21;6;6;
55518;PMS5003;41724;51.176;-0.708;2024-02-16T08:42:48;6;6;
55518;PMS5003;41724;51.176;-0.708;2024-02-16T08:45:15;7;5;
55518;PMS5003;41724;51.176;-0.708;2024-02-16T08:47:42;5;5;
55518;PMS5003;41724;51.176;-0.708;2024-02-16T08:50:09;7;5;
55518;PMS5003;41724;51.176;-0.708;2024-02-16T08:52:37;4;4;
55518;PMS5003;41724;51.176;-0.708;2024-02-16T08:55:04;6;5;
55518;PMS5003;41724;51.176;-0.708;2024-02-16T08:57:31;7;6;
55518;PMS5003;41724;51.176;-0.708;2024-02-16T08:59:59;8;7;
55518;PMS5003;41724;51.176;-0.708;2024-02-16T09:02:26;6;6;
55518;PMS5003;41724;51.176;-0.708;2024-02-16T09:04:53;6;5;
55518;PMS5003;41724;51.176;-0.708;2024-02-16T09:07:20;7;6;
55518;PMS5003;41724;51.176;-0.708;2024-02-16T09:09:48;11;10;
55518;PMS5003;41724;51.176;-0.708;2024-02-16T09:12:15;10;8;
55518;PMS5003;41724;51.176;-0.708;2024-02-16T09:14:42;10;8;
55518;PMS5003;41724;51.176;-0.708;2024-02-16T09:17:09;10;8;
55518;PMS5003;41724;51.176;-0.708;2024-02-16T09:19:36;7;7;
55518;PMS5003;41724;51.176;-0.708;2024-02-16T09:22:03;7;7;
55518;PMS5003;41724;51.176;-0.708;2024-02-16T09:24:30;5;4;
55518;PMS5003;41724;51.176;-0.708;2024-02-16T09:26:58;9;6;
55518;PMS5003;41724;51.176;-0.708;2024-02-16T09:29:25;5;5;
55518;PMS5003;41724;51.176;-0.708;2024-02-16T09:31:52;7;7;
55518;PMS5003;41724;51.176;-0.708;2024-02-16T09:34:19;7;6;
55518;PMS5003;41724;51.176;-0.708;2024-02-16T09:36:46;5;5;
55518;PMS5003;41724;51.176;-0.708;2024-02-16T09:39:13;3;3;
55518;PMS5003;41724;51.176;-0.708;2024-02-16T09:41:41;3;3;
55518;PMS5003;41724;51.176;-0.708;2024-02-16T09:44:08;1;1;
55518;PMS5003;41724;51.176;-0.708;2024-02-16T09:46:35;2;2;
55518;PMS5003;41724;51.176;-0.708;2024-02-16T09:49:03;3;2;
55518;PMS5003;41724;51.176;-0.708;2024-02-16T09:51:30;3;2;
55518;PMS5003;41724;51.176;-0.708;2024-02-16T09:53:57;3;2;
55518;PMS5003;41724;51.176;-0.708;2024-02-16T09:56:25;4;4;
55518;PMS5003;41724;51.176;-0.708;2024-02-16T09:58:52;3;3;
55518;PMS5003;41724;51.176;-0.708;2024-02-16T10:01:20;2;2;
55518;PMS5003;41724;51.176;-0.708;2024-02-16T10:03:49;3;3;
55518;PMS5003;41724;51.176;-0.708;2024-02-16T10:06:17;2;2;
55518;PMS5003;41724;51.176;-0.708;2024-02-16T10:08:47;4;4;
55518;PMS5003;41724;51.176;-0.708;2024-02-16T10:11:16;2;2;
55518;PMS5003;41724;51.176;-0.708;2024-02-16T10:13:43;2;2;
55518;PMS5003;41724;51.176;-0.708;2024-02-16T10:16:20;3;3;
55518;PMS5003;41724;51.176;-0.708;2024-02-16T10:18:47;2;2;
55518;PMS5003;41724;51.176;-0.708;2024-02-16T10:21:23;4;3;
55518;PMS5003;41724;51.176;-0.708;2024-02-16T10:23:57;1;1;
55518;PMS5003;41724;51.176;-0.708;2024-02-16T10:26:26;2;1;
55518;PMS5003;41724;51.176;-0.708;2024-02-16T10:28:54;2;1;
55518;PMS5003;41724;51.176;-0.708;2024-02-16T10:31:22;3;1;
55518;PMS5003;41724;51.176;-0.708;2024-02-16T10:33:49;1;1;
55518;PMS5003;41724;51.176;-0.708;2024-02-16T10:36:16;2;1;
55518;PMS5003;41724;51.176;-0.708;2024-02-16T10:38:44;1;1;
55518;PMS5003;41724;51.176;-0.708;2024-02-16T10:41:14;1;1;
55518;PMS5003;41724;51.176;-0.708;2024-02-16T10:43:43;2;1;
55518;PMS5003;41724;51.176;-0.708;2024-02-16T10:46:13;1;1;
55518;PMS5003;41724;51.176;-0.708;2024-02-16T10:48:42;1;1;
55518;PMS5003;41724;51.176;-0.708;2024-02-16T10:51:09;1;1;
55518;PMS5003;41724;51.176;-0.708;2024-02-16T10:53:39;2;2;
55518;PMS5003;41724;51.176;-0.708;2024-02-16T10:56:08;1;1;
55518;PMS5003;41724;51.176;-0.708;2024-02-16T10:58:35;0;0;
55518;PMS5003;41724;51.176;-0.708;2024-02-16T11:01:07;2;2;
55518;PMS5003;41724;51.176;-0.708;2024-02-16T11:03:37;0;0;
55518;PMS5003;41724;51.176;-0.708;2024-02-16T11:06:13;2;1;
55518;PMS5003;41724;51.176;-0.708;2024-02-16T11:08:41;0;0;
55518;PMS5003;41724;51.176;-0.708;2024-02-16T11:11:08;1;1;
55518;PMS5003;41724;51.176;-0.708;2024-02-16T11:13:35;0;0;
55518;PMS5003;41724;51.176;-0.708;2024-02-16T11:16:03;2;1;
55518;PMS5003;41724;51.176;-0.708;2024-02-16T11:18:37;2;2;
55518;PMS5003;41724;51.176;-0.708;2024-02-16T11:21:05;1;1;
55518;PMS5003;41724;51.176;-0.708;2024-02-16T11:23:33;0;0;
55518;PMS5003;41724;51.176;-0.708;2024-02-16T11:26:02;1;1;
55518;PMS5003;41724;51.176;-0.708;2024-02-16T11:28:31;1;1;
55518;PMS5003;41724;51.176;-0.708;2024-02-16T11:31:00;1;1;
55518;PMS5003;41724;51.176;-0.708;2024-02-16T11:33:28;5;2;
55518;PMS5003;41724;51.176;-0.708;2024-02-16T11:35:55;3;2;
55518;PMS5003;41724;51.176;-0.708;2024-02-16T11:38:23;1;1;
55518;PMS5003;41724;51.176;-0.708;2024-02-16T11:40:54;0;0;
55518;PMS5003;41724;51.176;-0.708;2024-02-16T11:43:22;0;0;
55518;PMS5003;41724;51.176;-0.708;2024-02-16T11:45:50;1;1;
55518;PMS5003;41724;51.176;-0.708;2024-02-16T11:48:19;3;2;
55518;PMS5003;41724;51.176;-0.708;2024-02-16T11:50:46;0;0;
55518;PMS5003;41724;51.176;-0.708;2024-02-16T11:53:16;2;2;
55518;PMS5003;41724;51.176;-0.708;2024-02-16T11:55:46;1;1;
55518;PMS5003;41724;51.176;-0.708;2024-02-16T11:58:13;2;1;
55518;PMS5003;41724;51.176;-0.708;2024-02-16T12:00:41;0;0;
55518;PMS5003;41724;51.176;-0.708;2024-02-16T12:03:08;0;0;
55518;PMS5003;41724;51.176;-0.708;2024-02-16T12:05:36;1;0;
55518;PMS5003;41724;51.176;-0.708;2024-02-16T12:08:05;0;0;
55518;PMS5003;41724;51.176;-0.708;2024-02-16T12:10:32;0;0;
55518;PMS5003;41724;51.176;-0.708;2024-02-16T12:12:59;1;0;
55518;PMS5003;41724;51.176;-0.708;2024-02-16T12:15:26;0;0;
55518;PMS5003;41724;51.176;-0.708;2024-02-16T12:18:00;1;1;
55518;PMS5003;41724;51.176;-0.708;2024-02-16T12:20:29;1;1;
55518;PMS5003;41724;51.176;-0.708;2024-02-16T12:22:57;1;1;
55518;PMS5003;41724;51.176;-0.708;2024-02-16T12:25:24;0;0;
55518;PMS5003;41724;51.176;-0.708;2024-02-16T12:27:51;0;0;
55518;PMS5003;41724;51.176;-0.708;2024-02-16T12:30:18;1;0;
55518;PMS5003;41724;51.176;-0.708;2024-02-16T12:32:45;1;1;
55518;PMS5003;41724;51.176;-0.708;2024-02-16T12:35:12;1;0;
55518;PMS5003;41724;51.176;-0.708;2024-02-16T12:37:39;0;0;
55518;PMS5003;41724;51.176;-0.708;2024-02-16T12:40:07;0;0;
55518;PMS5003;41724;51.176;-0.708;2024-02-16T12:42:35;3;3;
55518;PMS5003;41724;51.176;-0.708;2024-02-16T12:45:02;1;1;
55518;PMS5003;41724;51.176;-0.708;2024-02-16T12:47:30;0;0;
55518;PMS5003;41724;51.176;-0.708;2024-02-16T12:49:57;0;0;
55518;PMS5003;41724;51.176;-0.708;2024-02-16T12:52:24;0;0;
55518;PMS5003;41724;51.176;-0.708;2024-02-16T12:54:52;1;1;
55518;PMS5003;41724;51.176;-0.708;2024-02-16T12:57:19;1;0;
55518;PMS5003;41724;51.176;-0.708;2024-02-16T12:59:46;1;1;
55518;PMS5003;41724;51.176;-0.708;2024-02-16T13:02:13;1;1;
55518;PMS5003;41724;51.176;-0.708;2024-02-16T13:04:40;1;1;
55518;PMS5003;41724;51.176;-0.708;2024-02-16T13:07:07;1;0;
55518;PMS5003;41724;51.176;-0.708;2024-02-16T13:09:34;1;1;
55518;PMS5003;41724;51.176;-0.708;2024-02-16T13:12:01;0;0;
55518;PMS5003;41724;51.176;-0.708;2024-02-16T13:14:28;0;0;
55518;PMS5003;41724;51.176;-0.708;2024-02-16T13:16:55;0;0;
55518;PMS5003;41724;51.176;-0.708;2024-02-16T13:19:22;0;0;
55518;PMS5003;41724;51.176;-0.708;2024-02-16T13:21:49;0;0;
55518;PMS5003;41724;51.176;-0.708;2024-02-16T13:24:16;0;0;
55518;PMS5003;41724;51.176;-0.708;2024-02-16T13:26:43;0;0;
55518;PMS5003;41724;51.176;-0.708;2024-02-16T13:29:10;2;1;
55518;PMS5003;41724;51.176;-0.708;2024-02-16T13:31:37;2;2;
55518;PMS5003;41724;51.176;-0.708;2024-02-16T13:34:04;0;0;
55518;PMS5003;41724;51.176;-0.708;2024-02-16T13:36:31;3;1;
55518;PMS5003;41724;51.176;-0.708;2024-02-16T13:38:58;0;0;
55518;PMS5003;41724;51.176;-0.708;2024-02-16T13:41:25;0;0;
55518;PMS5003;41724;51.176;-0.708;2024-02-16T13:43:53;1;0;
55518;PMS5003;41724;51.176;-0.708;2024-02-16T13:46:20;1;1;
55518;PMS5003;41724;51.176;-0.708;2024-02-16T13:48:46;0;0;
55518;PMS5003;41724;51.176;-0.708;2024-02-16T13:51:13;1;0;
55518;PMS5003;41724;51.176;-0.708;2024-02-16T13:53:41;1;1;
55518;PMS5003;41724;51.176;-0.708;2024-02-16T13:56:07;1;0;
55518;PMS5003;41724;51.176;-0.708;2024-02-16T13:58:35;0;0;
55518;PMS5003;41724;51.176;-0.708;2024-02-16T14:01:02;0;0;
55518;PMS5003;41724;51.176;-0.708;2024-02-16T14:03:29;0;0;
55518;PMS5003;41724;51.176;-0.708;2024-02-16T14:05:57;2;0;
55518;PMS5003;41724;51.176;-0.708;2024-02-16T14:08:24;1;0;
55518;PMS5003;41724;51.176;-0.708;2024-02-16T14:10:51;3;2;
55518;PMS5003;41724;51.176;-0.708;2024-02-16T14:13:18;0;0;
55518;PMS5003;41724;51.176;-0.708;2024-02-16T14:15:45;1;1;
55518;PMS5003;41724;51.176;-0.708;2024-02-16T14:18:13;2;2;
55518;PMS5003;41724;51.176;-0.708;2024-02-16T14:20:40;1;1;
55518;PMS5003;41724;51.176;-0.708;2024-02-16T14:23:07;2;2;
55518;PMS5003;41724;51.176;-0.708;2024-02-16T14:25:34;0;0;
55518;PMS5003;41724;51.176;-0.708;2024-02-16T14:28:01;1;1;
55518;PMS5003;41724;51.176;-0.708;2024-02-16T14:30:29;0;0;
55518;PMS5003;41724;51.176;-0.708;2024-02-16T14:32:56;0;0;
55518;PMS5003;41724;51.176;-0.708;2024-02-16T14:35:23;0;0;
55518;PMS5003;41724;51.176;-0.708;2024-02-16T14:37:50;1;0;
55518;PMS5003;41724;51.176;-0.708;2024-02-16T14:40:18;0;0;
55518;PMS5003;41724;51.176;-0.708;2024-02-16T14:42:45;2;0;
55518;PMS5003;41724;51.176;-0.708;2024-02-16T14:45:12;2;0;
55518;PMS5003;41724;51.176;-0.708;2024-02-16T14:47:39;1;1;
55518;PMS5003;41724;51.176;-0.708;2024-02-16T14:50:06;3;3;
55518;PMS5003;41724;51.176;-0.708;2024-02-16T14:52:34;1;1;
55518;PMS5003;41724;51.176;-0.708;2024-02-16T14:55:01;2;1;
55518;PMS5003;41724;51.176;-0.708;2024-02-16T14:57:28;1;1;
55518;PMS5003;41724;51.176;-0.708;2024-02-16T14:59:55;4;3;
55518;PMS5003;41724;51.176;-0.708;2024-02-16T15:02:22;4;2;
55518;PMS5003;41724;51.176;-0.708;2024-02-16T15:04:49;2;2;
55518;PMS5003;41724;51.176;-0.708;2024-02-16T15:07:16;1;1;
55518;PMS5003;41724;51.176;-0.708;2024-02-16T15:09:43;2;2;
55518;PMS5003;41724;51.176;-0.708;2024-02-16T15:12:10;4;3;
55518;PMS5003;41724;51.176;-0.708;2024-02-16T15:14:37;2;1;
55518;PMS5003;41724;51.176;-0.708;2024-02-16T15:17:04;2;1;
55518;PMS5003;41724;51.176;-0.708;2024-02-16T15:19:31;3;2;
55518;PMS5003;41724;51.176;-0.708;2024-02-16T15:21:58;3;2;
55518;PMS5003;41724;51.176;-0.708;2024-02-16T15:24:25;2;2;
55518;PMS5003;41724;51.176;-0.708;2024-02-16T15:26:52;2;2;
55518;PMS5003;41724;51.176;-0.708;2024-02-16T15:29:19;2;1;
55518;PMS5003;41724;51.176;-0.708;2024-02-16T15:31:46;2;1;
55518;PMS5003;41724;51.176;-0.708;2024-02-16T15:34:13;1;1;
55518;PMS5003;41724;51.176;-0.708;2024-02-16T15:36:40;2;2;
55518;PMS5003;41724;51.176;-0.708;2024-02-16T15:39:07;5;5;
55518;PMS5003;41724;51.176;-0.708;2024-02-16T15:41:34;2;2;
55518;PMS5003;41724;51.176;-0.708;2024-02-16T15:44:02;4;4;
55518;PMS5003;41724;51.176;-0.708;2024-02-16T15:46:30;5;5;
55518;PMS5003;41724;51.176;-0.708;2024-02-16T15:48:56;2;2;
55518;PMS5003;41724;51.176;-0.708;2024-02-16T15:51:24;2;2;
55518;PMS5003;41724;51.176;-0.708;2024-02-16T15:53:51;4;3;
55518;PMS5003;41724;51.176;-0.708;2024-02-16T15:56:18;3;3;
55518;PMS5003;41724;51.176;-0.708;2024-02-16T15:58:45;1;1;
55518;PMS5003;41724;51.176;-0.708;2024-02-16T16:01:11;2;2;
55518;PMS5003;41724;51.176;-0.708;2024-02-16T16:03:38;3;3;
55518;PMS5003;41724;51.176;-0.708;2024-02-16T16:06:06;2;2;
55518;PMS5003;41724;51.176;-0.708;2024-02-16T16:08:32;4;2;
55518;PMS5003;41724;51.176;-0.708;2024-02-16T16:11:01;1;1;
55518;PMS5003;41724;51.176;-0.708;2024-02-16T16:13:28;0;0;
55518;PMS5003;41724;51.176;-0.708;2024-02-16T16:15:55;1;1;
55518;PMS5003;41724;51.176;-0.708;2024-02-16T16:18:22;3;2;
55518;PMS5003;41724;51.176;-0.708;2024-02-16T16:20:49;1;1;
55518;PMS5003;41724;51.176;-0.708;2024-02-16T16:23:18;1;0;
55518;PMS5003;41724;51.176;-0.708;2024-02-16T16:25:44;2;2;
55518;PMS5003;41724;51.176;-0.708;2024-02-16T16:28:11;3;3;
55518;PMS5003;41724;51.176;-0.708;2024-02-16T16:30:38;2;1;
55518;PMS5003;41724;51.176;-0.708;2024-02-16T16:33:06;2;1;